createdAt,value
2019-03-23T00:02:17.775Z,99.90
2019-03-23T00:04:48.171Z,99.90
2019-03-23T00:07:18.576Z,99.90
2019-03-23T00:09:49.032Z,99.90
2019-03-23T00:12:19.859Z,99.90
2019-03-23T00:14:50.246Z,99.90
2019-03-23T00:17:21.307Z,99.90
2019-03-23T00:19:52.204Z,99.90
2019-03-23T00:22:23.016Z,99.90
2019-03-23T00:24:53.721Z,99.90
2019-03-23T00:27:24.185Z,99.90
2019-03-23T00:29:54.541Z,99.90
2019-03-23T00:32:25.258Z,99.90
2019-03-23T00:34:55.692Z,99.90
2019-03-23T00:37:26.653Z,99.90
2019-03-23T00:39:57.302Z,99.90
2019-03-23T00:42:27.659Z,99.90
2019-03-23T00:44:58.060Z,99.90
2019-03-23T00:47:28.694Z,99.90
2019-03-23T00:49:59.449Z,99.90
2019-03-23T00:52:29.846Z,99.90
2019-03-23T00:55:00.363Z,99.90
2019-03-23T00:57:31.601Z,99.90
2019-03-23T01:00:01.984Z,99.90
2019-03-23T01:02:32.347Z,99.90
2019-03-23T01:05:03.232Z,99.90
2019-03-23T01:07:33.919Z,99.90
2019-03-23T01:10:10.945Z,99.90
2019-03-23T01:12:41.613Z,99.90
2019-03-23T01:15:13.386Z,99.90
2019-03-23T01:17:43.977Z,99.90
2019-03-23T01:20:14.942Z,99.90
2019-03-23T01:22:45.302Z,99.90
2019-03-23T01:25:15.638Z,99.90
2019-03-23T01:27:46.039Z,99.90
2019-03-23T01:30:16.754Z,99.90
2019-03-23T01:32:47.403Z,99.90
2019-03-23T01:35:37.486Z,99.90
2019-03-23T01:38:07.852Z,99.90
2019-03-23T01:40:38.567Z,99.90
2019-03-23T01:43:09.816Z,99.90
2019-03-23T01:45:40.147Z,99.90
2019-03-23T01:48:10.859Z,99.90
2019-03-23T01:50:41.516Z,99.90
2019-03-23T01:53:11.872Z,99.90
2019-03-23T01:55:42.850Z,99.90
2019-03-23T01:58:13.286Z,99.90
2019-03-23T02:00:44.335Z,99.90
2019-03-23T02:03:15.277Z,99.90
2019-03-23T02:05:45.651Z,99.90
2019-03-23T02:08:16.650Z,99.90
2019-03-23T02:10:47.262Z,99.90
2019-03-23T02:13:17.889Z,99.90
2019-03-23T02:15:48.978Z,99.90
2019-03-23T02:18:19.799Z,99.90
2019-03-23T02:20:50.552Z,99.90
2019-03-23T02:23:21.568Z,99.90
2019-03-23T02:25:52.320Z,99.90
2019-03-23T02:28:22.683Z,99.90
2019-03-23T02:30:53.369Z,99.90
2019-03-23T02:33:24.007Z,99.90
2019-03-23T02:35:54.868Z,99.90
2019-03-23T02:38:25.923Z,99.90
2019-03-23T02:40:56.604Z,99.90
2019-03-23T02:43:27.011Z,99.90
2019-03-23T02:45:57.374Z,99.90
2019-03-23T02:48:28.084Z,99.90
2019-03-23T02:50:58.734Z,99.90
2019-03-23T02:53:29.380Z,99.90
2019-03-23T02:55:59.983Z,99.90
2019-03-23T02:58:30.347Z,99.90
2019-03-23T03:01:01.396Z,99.90
2019-03-23T03:03:32.074Z,99.90
2019-03-23T03:06:02.757Z,99.90
2019-03-23T03:08:33.121Z,99.90
2019-03-23T03:11:04.226Z,99.90
2019-03-23T03:13:34.641Z,99.90
2019-03-23T03:16:05.012Z,99.90
2019-03-23T03:18:35.748Z,99.90
2019-03-23T03:21:06.480Z,99.90
2019-03-23T03:23:37.315Z,99.90
2019-03-23T03:26:08.025Z,99.90
2019-03-23T03:28:38.497Z,99.90
2019-03-23T03:31:08.832Z,99.90
2019-03-23T03:33:39.275Z,99.90
2019-03-23T03:36:11.130Z,99.90
2019-03-23T03:38:41.485Z,99.90
2019-03-23T03:41:12.223Z,99.90
2019-03-23T03:43:42.710Z,99.90
2019-03-23T03:46:13.341Z,99.90
2019-03-23T03:48:43.703Z,99.90
2019-03-23T03:51:14.475Z,99.90
2019-03-23T03:53:45.113Z,99.90
2019-03-23T03:56:15.481Z,99.90
2019-03-23T03:58:46.572Z,99.90
2019-03-23T04:01:17.300Z,99.90
2019-03-23T04:03:48.049Z,99.90
2019-03-23T04:06:19.387Z,99.90
2019-03-23T04:08:49.722Z,99.90
2019-03-23T04:11:20.189Z,99.90
2019-03-23T04:13:50.593Z,99.90
2019-03-23T04:16:20.932Z,99.90
2019-03-23T04:18:51.294Z,99.90
2019-03-23T04:21:21.668Z,99.90
2019-03-23T04:24:12.149Z,99.90
2019-03-23T04:26:42.906Z,99.90
2019-03-23T04:29:13.952Z,99.90
2019-03-23T04:31:44.989Z,99.90
2019-03-23T04:34:15.749Z,99.90
2019-03-23T04:36:46.778Z,99.90
2019-03-23T04:39:17.117Z,99.90
2019-03-23T04:41:47.982Z,99.90
2019-03-23T04:44:19.076Z,99.90
2019-03-23T04:46:49.809Z,99.90
2019-03-23T04:49:20.588Z,99.90
2019-03-23T04:51:51.289Z,99.90
2019-03-23T04:54:21.622Z,99.90
2019-03-23T04:56:52.377Z,99.90
2019-03-23T04:59:23.068Z,99.90
2019-03-23T05:01:53.511Z,99.90
2019-03-23T05:04:24.456Z,99.90
2019-03-23T05:06:54.804Z,99.90
2019-03-23T05:09:26.136Z,99.90
2019-03-23T05:11:56.511Z,99.90
2019-03-23T05:14:26.857Z,99.90
2019-03-23T05:16:57.213Z,99.90
2019-03-23T05:19:27.785Z,99.90
2019-03-23T05:21:58.788Z,99.90
2019-03-23T05:24:29.489Z,99.90
2019-03-23T05:26:59.847Z,99.90
2019-03-23T05:29:30.494Z,99.90
2019-03-23T05:32:01.120Z,99.90
2019-03-23T05:34:31.691Z,99.90
2019-03-23T05:37:02.316Z,99.90
2019-03-23T05:39:33.160Z,99.90
2019-03-23T05:42:04.150Z,99.90
2019-03-23T05:44:34.512Z,99.90
2019-03-23T05:47:04.868Z,99.90
2019-03-23T05:49:35.553Z,99.90
2019-03-23T05:52:05.901Z,99.90
2019-03-23T05:54:36.231Z,99.90
2019-03-23T05:57:07.107Z,99.90
2019-03-23T05:59:38.183Z,99.90
2019-03-23T06:02:08.835Z,99.90
2019-03-23T06:04:39.251Z,99.90
2019-03-23T06:07:09.873Z,99.90
2019-03-23T06:09:40.660Z,99.90
2019-03-23T06:12:11.869Z,99.90
2019-03-23T06:14:42.599Z,99.90
2019-03-23T06:17:12.971Z,99.90
2019-03-23T06:19:43.690Z,99.90
2019-03-23T06:22:14.291Z,99.90
2019-03-23T06:24:45.275Z,99.90
2019-03-23T06:27:15.745Z,99.90
2019-03-23T06:29:46.421Z,99.90
2019-03-23T06:32:17.182Z,99.90
2019-03-23T06:34:47.913Z,99.90
2019-03-23T06:37:18.635Z,99.90
2019-03-23T06:39:49.745Z,99.90
2019-03-23T06:42:20.820Z,99.90
2019-03-23T06:44:51.566Z,99.90
2019-03-23T06:47:21.925Z,99.90
2019-03-23T06:49:52.635Z,99.90
2019-03-23T06:52:23.854Z,99.90
2019-03-23T06:54:54.610Z,99.90
2019-03-23T06:57:24.980Z,99.90
2019-03-23T06:59:55.337Z,99.90
2019-03-23T07:02:25.701Z,99.90
2019-03-23T07:04:56.072Z,99.90
2019-03-23T07:07:26.743Z,99.90
2019-03-23T07:09:57.077Z,99.90
2019-03-23T07:12:27.846Z,99.90
2019-03-23T07:14:58.307Z,99.90
2019-03-23T07:17:31.718Z,99.90
2019-03-23T07:20:01.012Z,99.90
2019-03-23T07:22:31.354Z,99.90
2019-03-23T07:25:02.082Z,99.90
2019-03-23T07:27:32.908Z,99.90
2019-03-23T07:30:05.551Z,99.90
2019-03-23T07:32:36.261Z,99.90
2019-03-23T07:35:06.656Z,99.90
2019-03-23T07:37:37.027Z,99.90
2019-03-23T07:40:09.396Z,99.90
2019-03-23T07:42:40.225Z,99.90
2019-03-23T07:45:15.459Z,99.90
2019-03-23T07:47:46.189Z,99.90
2019-03-23T07:50:16.566Z,99.90
2019-03-23T07:52:46.924Z,99.90
2019-03-23T07:55:17.968Z,99.90
2019-03-23T07:57:48.296Z,99.90
2019-03-23T08:00:21.380Z,99.90
2019-03-23T08:02:52.671Z,99.90
2019-03-23T08:05:23.030Z,99.90
2019-03-23T08:07:53.765Z,99.90
2019-03-23T08:10:33.572Z,99.80
2019-03-23T08:13:04.646Z,99.60
2019-03-23T08:15:35.018Z,99.40
2019-03-23T08:18:05.465Z,99.20
2019-03-23T08:20:35.845Z,99.60
2019-03-23T08:23:06.186Z,99.00
2019-03-23T08:25:37.238Z,99.10
2019-03-23T08:28:07.588Z,99.20
2019-03-23T08:30:38.262Z,99.10
2019-03-23T08:33:08.675Z,98.70
2019-03-23T08:35:39.024Z,98.50
2019-03-23T08:38:09.943Z,98.10
2019-03-23T08:40:40.679Z,98.20
2019-03-23T08:43:11.095Z,98.30
2019-03-23T08:45:41.425Z,98.00
2019-03-23T08:48:11.814Z,97.10
2019-03-23T08:50:42.187Z,96.50
2019-03-23T08:53:12.552Z,96.40
2019-03-23T08:55:43.106Z,96.70
2019-03-23T08:58:14.111Z,95.60
2019-03-23T09:00:44.481Z,95.30
2019-03-23T09:03:15.274Z,94.90
2019-03-23T09:05:45.645Z,94.40
2019-03-23T09:08:16.026Z,93.50
2019-03-23T09:10:46.459Z,94.10
2019-03-23T09:13:16.808Z,93.60
2019-03-23T09:15:47.724Z,92.00
2019-03-23T09:18:18.443Z,91.80
2019-03-23T09:20:48.913Z,91.30
2019-03-23T09:23:19.653Z,91.30
2019-03-23T09:25:50.581Z,90.10
2019-03-23T09:28:21.706Z,89.40
2019-03-23T09:30:52.083Z,90.40
2019-03-23T09:33:22.823Z,88.10
2019-03-23T09:35:53.218Z,89.30
2019-03-23T09:38:23.593Z,90.00
2019-03-23T09:40:54.768Z,88.90
2019-03-23T09:43:25.135Z,85.10
2019-03-23T09:45:55.518Z,80.80
2019-03-23T09:48:25.922Z,80.60
2019-03-23T09:50:56.305Z,79.90
2019-03-23T09:53:27.002Z,81.60
2019-03-23T09:55:58.006Z,80.10
2019-03-23T09:58:28.381Z,78.50
2019-03-23T10:00:58.746Z,76.50
2019-03-23T10:03:29.466Z,76.40
2019-03-23T10:06:00.158Z,75.30
2019-03-23T10:08:30.868Z,73.30
2019-03-23T10:11:01.611Z,71.10
2019-03-23T10:13:31.960Z,70.30
2019-03-23T10:16:02.587Z,66.90
2019-03-23T10:18:32.972Z,63.60
2019-03-23T10:21:03.619Z,59.80
2019-03-23T10:23:34.002Z,56.60
2019-03-23T10:26:04.668Z,53.30
2019-03-23T10:28:35.042Z,52.10
2019-03-23T10:31:05.539Z,51.40
2019-03-23T10:33:35.955Z,50.80
2019-03-23T10:36:06.317Z,50.00
2019-03-23T10:38:36.664Z,49.30
2019-03-23T10:41:07.085Z,49.00
2019-03-23T10:43:39.088Z,48.00
2019-03-23T10:46:10.321Z,46.50
2019-03-23T10:48:40.701Z,47.70
2019-03-23T10:51:11.385Z,48.40
2019-03-23T10:53:41.747Z,45.80
2019-03-23T10:56:12.462Z,45.80
2019-03-23T10:58:43.305Z,44.50
2019-03-23T11:01:13.663Z,45.70
2019-03-23T11:03:44.735Z,44.80
2019-03-23T11:06:15.690Z,46.10
2019-03-23T11:08:46.063Z,45.70
2019-03-23T11:11:16.778Z,45.20
2019-03-23T11:13:47.480Z,44.40
2019-03-23T11:16:17.836Z,44.30
2019-03-23T11:18:48.565Z,42.20
2019-03-23T11:21:18.909Z,41.90
2019-03-23T11:23:49.267Z,42.70
2019-03-23T11:26:19.781Z,42.80
2019-03-23T11:28:50.148Z,42.50
2019-03-23T11:31:20.789Z,42.20
2019-03-23T11:33:51.450Z,42.50
2019-03-23T11:36:22.186Z,42.80
2019-03-23T11:38:52.827Z,42.10
2019-03-23T11:41:24.270Z,42.60
2019-03-23T11:43:54.984Z,42.40
2019-03-23T11:46:25.636Z,42.90
2019-03-23T11:48:56.364Z,42.90
2019-03-23T11:51:27.085Z,43.30
2019-03-23T11:53:57.825Z,44.20
2019-03-23T11:56:30.461Z,43.90
2019-03-23T11:59:00.374Z,44.20
2019-03-23T12:01:31.258Z,44.00
2019-03-23T12:04:01.945Z,44.10
2019-03-23T12:06:32.656Z,44.60
2019-03-23T12:09:04.697Z,44.70
2019-03-23T12:11:35.676Z,44.80
2019-03-23T12:14:06.818Z,45.00
2019-03-23T12:16:37.524Z,45.00
2019-03-23T12:19:07.917Z,44.40
2019-03-23T12:21:38.672Z,42.70
2019-03-23T12:24:09.039Z,41.10
2019-03-23T12:26:39.818Z,39.30
2019-03-23T12:29:10.896Z,39.50
2019-03-23T12:31:41.556Z,40.10
2019-03-23T12:34:12.323Z,40.10
2019-03-23T12:36:42.725Z,42.80
2019-03-23T12:39:13.762Z,44.50
2019-03-23T12:41:44.185Z,46.30
2019-03-23T12:44:14.805Z,48.50
2019-03-23T12:46:48.502Z,50.00
2019-03-23T12:49:17.714Z,50.40
2019-03-23T12:51:48.353Z,50.70
2019-03-23T12:54:19.102Z,51.50
2019-03-23T12:56:50.205Z,52.20
2019-03-23T12:59:20.836Z,51.50
2019-03-23T13:01:51.221Z,51.20
2019-03-23T13:04:21.934Z,50.00
2019-03-23T13:06:52.275Z,50.10
2019-03-23T13:09:23.005Z,48.80
2019-03-23T13:11:54.155Z,49.40
2019-03-23T13:14:24.900Z,49.10
2019-03-23T13:16:55.254Z,49.50
2019-03-23T13:19:25.631Z,50.90
2019-03-23T13:21:56.253Z,50.80
2019-03-23T13:24:26.910Z,49.70
2019-03-23T13:26:57.667Z,50.50
2019-03-23T13:29:28.043Z,50.80
2019-03-23T13:31:59.121Z,49.60
2019-03-23T13:34:29.786Z,50.10
2019-03-23T13:37:00.443Z,49.90
2019-03-23T13:39:30.849Z,50.00
2019-03-23T13:42:01.520Z,49.90
2019-03-23T13:44:31.860Z,49.70
2019-03-23T13:47:02.230Z,49.60
2019-03-23T13:49:32.872Z,49.00
2019-03-23T13:52:03.252Z,47.60
2019-03-23T13:54:33.909Z,47.10
2019-03-23T13:57:04.470Z,47.10
2019-03-23T13:59:34.822Z,46.70
2019-03-23T14:02:05.197Z,47.60
2019-03-23T14:04:35.931Z,48.00
2019-03-23T14:07:06.668Z,48.70
2019-03-23T14:09:37.379Z,48.30
2019-03-23T14:12:07.768Z,48.50
2019-03-23T14:14:38.477Z,49.20
2019-03-23T14:17:09.220Z,48.90
2019-03-23T14:19:40.090Z,49.40
2019-03-23T14:22:11.081Z,49.50
2019-03-23T14:24:41.449Z,49.10
2019-03-23T14:27:12.552Z,49.70
2019-03-23T14:29:42.922Z,49.20
2019-03-23T14:32:13.704Z,50.10
2019-03-23T14:34:44.447Z,50.80
2019-03-23T14:37:15.489Z,50.80
2019-03-23T14:39:46.257Z,51.20
2019-03-23T14:42:16.678Z,51.80
2019-03-23T14:44:47.060Z,51.10
2019-03-23T14:47:17.702Z,51.30
2019-03-23T14:49:48.444Z,51.10
2019-03-23T14:52:18.814Z,50.60
2019-03-23T14:54:49.519Z,50.20
2019-03-23T14:57:20.372Z,50.10
2019-03-23T14:59:51.119Z,49.20
2019-03-23T15:02:21.861Z,48.40
2019-03-23T15:04:52.241Z,48.40
2019-03-23T15:07:22.912Z,47.30
2019-03-23T15:09:53.515Z,47.40
2019-03-23T15:12:24.533Z,47.20
2019-03-23T15:14:55.051Z,47.70
2019-03-23T15:17:25.397Z,47.90
2019-03-23T15:19:55.785Z,47.60
2019-03-23T15:22:26.166Z,48.40
2019-03-23T15:24:56.529Z,48.70
2019-03-23T15:27:26.961Z,48.70
2019-03-23T15:29:57.639Z,48.40
2019-03-23T15:32:28.704Z,48.40
2019-03-23T15:34:59.688Z,49.90
2019-03-23T15:37:30.686Z,49.90
2019-03-23T15:40:01.421Z,49.20
2019-03-23T15:42:31.846Z,49.30
2019-03-23T15:45:02.502Z,50.00
2019-03-23T15:47:33.225Z,49.60
2019-03-23T15:50:05.148Z,49.70
2019-03-23T15:52:35.836Z,49.80
2019-03-23T15:55:07.320Z,49.40
2019-03-23T15:57:38.090Z,50.60
2019-03-23T16:00:10.651Z,50.50
2019-03-23T16:02:41.020Z,51.10
2019-03-23T16:05:11.784Z,49.80
2019-03-23T16:07:42.816Z,50.90
2019-03-23T16:10:13.431Z,50.20
2019-03-23T16:12:44.585Z,50.00
2019-03-23T16:15:16.400Z,48.50
2019-03-23T16:17:47.093Z,47.90
2019-03-23T16:20:17.589Z,48.50
2019-03-23T16:22:47.964Z,47.70
2019-03-23T16:25:18.677Z,47.30
2019-03-23T16:27:49.554Z,47.20
2019-03-23T16:30:32.681Z,47.20
2019-03-23T16:33:03.085Z,46.90
2019-03-23T16:35:33.436Z,46.70
2019-03-23T16:38:04.162Z,46.80
2019-03-23T16:40:34.610Z,48.00
2019-03-23T16:43:06.330Z,47.60
2019-03-23T16:45:37.225Z,47.90
2019-03-23T16:48:07.574Z,48.70
2019-03-23T16:50:38.228Z,48.80
2019-03-23T16:53:09.288Z,49.00
2019-03-23T16:55:39.995Z,48.60
2019-03-23T16:58:16.076Z,49.20
2019-03-23T17:00:43.031Z,49.40
2019-03-23T17:03:13.383Z,49.70
2019-03-23T17:05:43.752Z,49.90
2019-03-23T17:08:14.141Z,50.10
2019-03-23T17:10:44.846Z,50.20
2019-03-23T17:13:15.216Z,50.50
2019-03-23T17:15:45.630Z,50.30
2019-03-23T17:18:16.358Z,50.10
2019-03-23T17:20:47.093Z,50.40
2019-03-23T17:23:17.489Z,50.50
2019-03-23T17:25:48.307Z,50.60
2019-03-23T17:28:18.674Z,51.20
2019-03-23T17:30:49.408Z,50.60
2019-03-23T17:33:20.053Z,51.00
2019-03-23T17:35:50.779Z,50.30
2019-03-23T17:38:21.283Z,50.40
2019-03-23T17:40:52.394Z,49.70
2019-03-23T17:43:22.786Z,50.00
2019-03-23T17:45:53.909Z,50.30
2019-03-23T17:48:24.255Z,50.00
2019-03-23T17:50:54.717Z,50.40
2019-03-23T17:53:25.100Z,50.10
2019-03-23T17:55:55.473Z,50.30
2019-03-23T17:58:26.173Z,50.30
2019-03-23T18:00:56.838Z,50.40
2019-03-23T18:03:27.540Z,50.30
2019-03-23T18:05:58.268Z,51.20
2019-03-23T18:08:29.046Z,50.70
2019-03-23T18:11:00.451Z,50.80
2019-03-23T18:13:31.061Z,51.10
2019-03-23T18:16:20.887Z,51.10
2019-03-23T18:18:51.905Z,51.60
2019-03-23T18:21:22.274Z,51.00
2019-03-23T18:23:52.662Z,51.30
2019-03-23T18:26:23.023Z,51.50
2019-03-23T18:28:53.390Z,51.90
2019-03-23T18:31:24.153Z,52.10
2019-03-23T18:33:54.791Z,52.40
2019-03-23T18:36:25.464Z,52.30
2019-03-23T18:38:55.941Z,52.30
2019-03-23T18:41:26.284Z,52.10
2019-03-23T18:43:56.866Z,52.40
2019-03-23T18:46:27.572Z,51.90
2019-03-23T18:48:58.303Z,51.70
2019-03-23T18:51:28.745Z,51.90
2019-03-23T18:53:59.497Z,51.40
2019-03-23T18:56:30.410Z,51.50
2019-03-23T18:59:46.808Z,52.00
2019-03-23T19:02:17.173Z,52.40
2019-03-23T19:04:49.641Z,52.40
2019-03-23T19:07:20.073Z,52.80
2019-03-23T19:09:50.436Z,53.40
2019-03-23T19:12:20.806Z,53.40
2019-03-23T19:14:51.829Z,54.60
2019-03-23T19:17:22.480Z,54.70
2019-03-23T19:19:53.294Z,55.20
2019-03-23T19:22:24.075Z,55.70
2019-03-23T19:24:54.434Z,55.80
2019-03-23T19:27:25.431Z,56.80
2019-03-23T19:29:55.824Z,57.30
2019-03-23T19:32:26.191Z,57.20
2019-03-23T19:34:56.536Z,57.80
2019-03-23T19:37:27.678Z,57.70
2019-03-23T19:39:58.699Z,58.30
2019-03-23T19:42:29.824Z,58.40
2019-03-23T19:45:01.207Z,58.80
2019-03-23T19:47:32.139Z,59.30
2019-03-23T19:50:02.777Z,59.40
2019-03-23T19:52:33.646Z,59.40
2019-03-23T19:55:06.486Z,59.40
2019-03-23T19:57:37.374Z,59.10
2019-03-23T20:00:09.080Z,59.20
2019-03-23T20:02:39.464Z,59.60
2019-03-23T20:05:09.812Z,60.70
2019-03-23T20:07:40.210Z,62.30
2019-03-23T20:10:11.030Z,63.20
2019-03-23T20:12:41.407Z,63.70
2019-03-23T20:15:12.495Z,64.90
2019-03-23T20:17:42.863Z,65.40
2019-03-23T20:20:13.229Z,66.10
2019-03-23T20:22:43.740Z,66.20
2019-03-23T20:25:14.410Z,66.00
2019-03-23T20:27:45.172Z,66.70
2019-03-23T20:30:17.342Z,67.10
2019-03-23T20:32:47.682Z,68.00
2019-03-23T20:35:18.059Z,69.10
2019-03-23T20:37:48.670Z,68.10
2019-03-23T20:40:19.036Z,68.20
2019-03-23T20:42:50.076Z,68.00
2019-03-23T20:45:27.069Z,69.80
2019-03-23T20:47:57.937Z,68.70
2019-03-23T20:50:28.358Z,66.40
2019-03-23T20:52:59.475Z,58.70
2019-03-23T20:55:30.794Z,57.20
2019-03-23T20:58:01.404Z,57.50
2019-03-23T21:00:31.842Z,56.30
2019-03-23T21:03:02.490Z,56.10
2019-03-23T21:05:34.460Z,56.00
2019-03-23T21:08:05.323Z,54.10
2019-03-23T21:10:35.776Z,54.00
2019-03-23T21:13:06.120Z,53.90
2019-03-23T21:15:36.789Z,53.60
2019-03-23T21:18:07.176Z,53.50
2019-03-23T21:20:37.512Z,53.40
2019-03-23T21:23:07.914Z,54.30
2019-03-23T21:25:57.688Z,54.90
2019-03-23T21:28:28.085Z,55.60
2019-03-23T21:30:58.741Z,56.50
2019-03-23T21:33:32.066Z,56.50
2019-03-23T21:36:02.360Z,57.40
2019-03-23T21:38:32.729Z,57.90
2019-03-23T21:41:03.101Z,58.70
2019-03-23T21:43:33.979Z,59.20
2019-03-23T21:46:04.350Z,59.90
2019-03-23T21:48:35.003Z,60.70
2019-03-23T21:51:05.654Z,61.30
2019-03-23T21:53:36.021Z,61.50
2019-03-23T21:56:07.116Z,62.50
2019-03-23T21:58:37.886Z,64.00
2019-03-23T22:01:08.533Z,65.40
2019-03-23T22:03:38.895Z,66.50
2019-03-23T22:06:09.284Z,68.00
2019-03-23T22:08:39.649Z,69.30
2019-03-23T22:11:10.323Z,70.20
2019-03-23T22:13:40.902Z,70.80
2019-03-23T22:16:11.568Z,72.10
2019-03-23T22:18:42.219Z,73.60
2019-03-23T22:21:13.002Z,76.70
2019-03-23T22:23:43.371Z,79.30
2019-03-23T22:26:14.076Z,84.00
2019-03-23T22:28:44.827Z,85.20
2019-03-23T22:31:15.196Z,87.30
2019-03-23T22:33:45.549Z,88.30
2019-03-23T22:36:16.554Z,88.30
2019-03-23T22:38:47.247Z,87.90
2019-03-23T22:41:18.312Z,89.30
2019-03-23T22:43:48.817Z,89.70
2019-03-23T22:46:19.809Z,89.80
2019-03-23T22:48:50.137Z,89.70
2019-03-23T22:51:20.554Z,89.80
2019-03-23T22:53:50.903Z,89.70
2019-03-23T22:56:21.602Z,89.70
2019-03-23T22:58:52.008Z,89.80
2019-03-23T23:01:22.715Z,90.90
2019-03-23T23:03:53.067Z,90.90
2019-03-23T23:06:23.797Z,91.00
2019-03-23T23:08:54.150Z,91.00
2019-03-23T23:11:25.213Z,91.00
2019-03-23T23:13:56.103Z,90.30
2019-03-23T23:16:26.495Z,89.40
2019-03-23T23:18:56.860Z,88.90
2019-03-23T23:21:27.262Z,89.80
2019-03-23T23:23:57.629Z,90.00
2019-03-23T23:26:27.989Z,90.00
2019-03-23T23:28:58.660Z,90.70
2019-03-23T23:31:29.572Z,90.60
2019-03-23T23:34:00.602Z,90.80
2019-03-23T23:36:31.076Z,85.80
2019-03-23T23:39:01.438Z,84.90
2019-03-23T23:41:32.054Z,77.90
2019-03-23T23:44:03.155Z,63.60
2019-03-23T23:46:33.592Z,62.70
2019-03-23T23:49:04.217Z,62.30
2019-03-23T23:51:34.606Z,61.10
2019-03-23T23:54:05.989Z,61.90
2019-03-23T23:56:36.381Z,62.40
2019-03-23T23:59:07.835Z,63.40
